Mata, Brazil
Current Conditions -  °F | °C
As of 12:25 AM on Saturday 25 Oct 2014 (Local Time) from SBSM Reporting Station
Clear Clear  
Wind Chill: 64°   Ceiling: Unl
Heat Index: 64°   Visibility: 6mi
Dew Point: 61°   Wind: 7mph
Humidity: 88%   Direction: 140°SE
Pressure: 29.91"   Gusts: NA
Location:  29.57°S, 54.45°W
Report Text: SBSM 250225Z 14006KT CAVOK 18/16 Q1013
Loading
Personal Weather Stations






























Interactive Weather Map
Tropical Storm Tracking
New forecast layout! Learn more

10-Day Weather Forecast

Advertisements
Track Severe Weather on mobile